John Murtha Johnstown Cambria County Airport
KJST : rendu visible

Aérodrome :











RETROUVEZ-NOUS SUR...

 
LOGIN :

S'inscrire | Disclaimer

   EN    FR    IT 

 









Légende :    VFR   VFR Marginal   IFR   IFR Intensif   IFR Très Intensif
Visi : 
Plafond : 
>= 8 km
>= 3000ft
5 à 8 km
1000 à 3000 ft
1500m à 5 km
500 à 1000 ft
800 à 1500m
200 à 500 ft
< 800m
< 200 ft
Symboles :   Orages  Brouillard  Fortes neiges  Fortes précipitations  Vent > 20 kt






- Altitude de l'aérodrome : 2284 ft
- Code IATA : JST


KJST - John Murtha Johnstown Cambria County

DERNIER METAR :
  • 250354Z AUTO 14008KT 10SM CLR 03/M04 A3017 RMK AO2 SLP236 T00281039

METARs EXPIRÉS :
  • 250254Z AUTO 14008G17KT 10SM BKN065 03/M04 A3019 RMK AO2 SLP242 T00331039 57013
  • 250154Z AUTO 14010G20KT 10SM OVC060 03/M04 A3020 RMK AO2 SLP249 T00331044

TAF KJST
Valide du 25 à 04h jusqu'au 26 à 00h UTC


250410Z 2504/2524 14008KT P6SM VCSH OVC060
FM250500 16010KT P6SM BKN150 WS012/18030KT
FM251800 17008KT P6SM OVC035 WS020/23028KT
FM252200 16008KT 5SM -RA BR OVC025 WS020/23038KT
FIR KZOB / Amérique du Nord



MET'MAP, la Météo Aéronautique d'un coup d'oeil ! - Copyright ORBIFLY Décembre 2007 - Disclaimer

ORBIFLY MET'MAP TEAM :

Programmation & Développement : Alexandra Zaïnal
Sur une idée originale de : Baudouin d'Aumeries
Assistance à la programmation : Marc-Olivier Méhu
Soutien technique & logistique : Manuel Goepfert

Contact : metmap@orbifly.com




SOURCES & CREDITS :

   NOAA       Earth
Advisory